sensor_id;sensor_type;location;lat;lon;timestamp;pressure;altitude;pressure_sealevel;temperature;humidity
21096;BME280;10706;49.036;12.112;2022-08-25T00:01:52;97961.44;;;17.43;85.75
21096;BME280;10706;49.036;12.112;2022-08-25T00:04:20;97966.03;;;17.47;85.69
21096;BME280;10706;49.036;12.112;2022-08-25T00:06:47;97962.19;;;17.64;84.72
21096;BME280;10706;49.036;12.112;2022-08-25T00:09:16;97956.50;;;17.76;84.35
21096;BME280;10706;49.036;12.112;2022-08-25T00:11:44;97967.00;;;17.77;83.83
21096;BME280;10706;49.036;12.112;2022-08-25T00:14:18;97962.97;;;17.75;84.07
21096;BME280;10706;49.036;12.112;2022-08-25T00:16:45;97955.16;;;17.68;84.06
21096;BME280;10706;49.036;12.112;2022-08-25T00:19:17;97963.81;;;17.65;84.57
21096;BME280;10706;49.036;12.112;2022-08-25T00:21:45;97967.06;;;17.57;84.90
21096;BME280;10706;49.036;12.112;2022-08-25T00:24:15;97962.22;;;17.54;84.96
21096;BME280;10706;49.036;12.112;2022-08-25T00:26:45;97961.44;;;17.53;84.71
21096;BME280;10706;49.036;12.112;2022-08-25T00:29:12;97957.91;;;17.53;84.94
21096;BME280;10706;49.036;12.112;2022-08-25T00:31:39;97945.72;;;17.60;84.57
21096;BME280;10706;49.036;12.112;2022-08-25T00:34:13;97947.38;;;17.51;85.18
21096;BME280;10706;49.036;12.112;2022-08-25T00:36:40;97943.91;;;17.35;85.50
21096;BME280;10706;49.036;12.112;2022-08-25T00:39:08;97944.22;;;17.23;85.75
21096;BME280;10706;49.036;12.112;2022-08-25T00:41:34;97937.50;;;17.10;86.41
21096;BME280;10706;49.036;12.112;2022-08-25T00:44:04;97934.00;;;17.00;86.49
21096;BME280;10706;49.036;12.112;2022-08-25T00:46:36;97928.06;;;16.98;86.83
21096;BME280;10706;49.036;12.112;2022-08-25T00:49:38;97933.72;;;17.12;87.50
21096;BME280;10706;49.036;12.112;2022-08-25T00:52:22;97934.75;;;17.26;86.30
21096;BME280;10706;49.036;12.112;2022-08-25T00:57:32;97941.75;;;17.37;86.10
21096;BME280;10706;49.036;12.112;2022-08-25T00:59:59;97925.03;;;17.40;85.82
21096;BME280;10706;49.036;12.112;2022-08-25T01:02:25;97928.00;;;17.39;85.83
21096;BME280;10706;49.036;12.112;2022-08-25T01:04:51;97930.41;;;17.40;85.46
21096;BME280;10706;49.036;12.112;2022-08-25T01:07:19;97928.31;;;17.27;86.00
21096;BME280;10706;49.036;12.112;2022-08-25T01:09:49;97925.06;;;17.25;86.30
21096;BME280;10706;49.036;12.112;2022-08-25T01:12:16;97924.28;;;17.14;86.49
21096;BME280;10706;49.036;12.112;2022-08-25T01:14:43;97930.78;;;17.08;86.83
21096;BME280;10706;49.036;12.112;2022-08-25T01:17:12;97932.38;;;17.04;87.19
21096;BME280;10706;49.036;12.112;2022-08-25T01:19:38;97927.25;;;17.18;86.74
21096;BME280;10706;49.036;12.112;2022-08-25T01:22:04;97929.94;;;17.18;86.45
21096;BME280;10706;49.036;12.112;2022-08-25T01:27:18;97925.34;;;17.13;86.69
21096;BME280;10706;49.036;12.112;2022-08-25T01:29:43;97935.03;;;17.24;86.22
21096;BME280;10706;49.036;12.112;2022-08-25T01:32:11;97943.97;;;17.09;86.87
21096;BME280;10706;49.036;12.112;2022-08-25T01:34:40;97936.44;;;17.01;87.27
21096;BME280;10706;49.036;12.112;2022-08-25T01:37:09;97939.13;;;16.91;87.64
21096;BME280;10706;49.036;12.112;2022-08-25T01:39:35;97936.44;;;16.60;87.44
21096;BME280;10706;49.036;12.112;2022-08-25T01:42:32;97931.03;;;16.29;88.10
21096;BME280;10706;49.036;12.112;2022-08-25T01:44:59;97932.63;;;16.20;89.51
21096;BME280;10706;49.036;12.112;2022-08-25T01:47:24;97933.94;;;16.18;89.62
21096;BME280;10706;49.036;12.112;2022-08-25T01:49:50;97935.28;;;16.15;90.07
21096;BME280;10706;49.036;12.112;2022-08-25T01:52:33;97932.31;;;16.01;90.18
21096;BME280;10706;49.036;12.112;2022-08-25T01:55:02;97928.78;;;16.01;90.85
21096;BME280;10706;49.036;12.112;2022-08-25T01:57:30;97927.19;;;16.00;91.21
21096;BME280;10706;49.036;12.112;2022-08-25T01:59:57;97925.81;;;15.97;91.24
21096;BME280;10706;49.036;12.112;2022-08-25T02:02:23;97923.41;;;15.96;90.81
21096;BME280;10706;49.036;12.112;2022-08-25T02:04:49;97923.94;;;15.92;90.78
21096;BME280;10706;49.036;12.112;2022-08-25T02:07:15;97920.38;;;15.82;90.55
21096;BME280;10706;49.036;12.112;2022-08-25T02:09:41;97920.66;;;15.80;91.15
21096;BME280;10706;49.036;12.112;2022-08-25T02:12:08;97923.53;;;15.63;91.49
21096;BME280;10706;49.036;12.112;2022-08-25T02:14:35;97925.09;;;15.54;92.46
21096;BME280;10706;49.036;12.112;2022-08-25T02:17:03;97926.44;;;15.51;92.91
21096;BME280;10706;49.036;12.112;2022-08-25T02:19:29;97919.72;;;15.54;92.89
21096;BME280;10706;49.036;12.112;2022-08-25T02:21:57;97928.63;;;15.54;92.66
21096;BME280;10706;49.036;12.112;2022-08-25T02:24:23;97924.56;;;15.57;92.41
21096;BME280;10706;49.036;12.112;2022-08-25T02:26:49;97919.75;;;15.64;91.51
21096;BME280;10706;49.036;12.112;2022-08-25T02:29:15;97919.16;;;15.52;91.59
21096;BME280;10706;49.036;12.112;2022-08-25T02:31:43;97917.00;;;15.44;92.78
21096;BME280;10706;49.036;12.112;2022-08-25T02:34:09;97914.81;;;15.35;92.95
21096;BME280;10706;49.036;12.112;2022-08-25T02:36:37;97922.63;;;15.42;93.05
21096;BME280;10706;49.036;12.112;2022-08-25T02:39:06;97910.25;;;15.41;93.08
21096;BME280;10706;49.036;12.112;2022-08-25T02:41:32;97910.25;;;15.41;93.04
21096;BME280;10706;49.036;12.112;2022-08-25T02:44:00;97910.50;;;15.40;93.71
21096;BME280;10706;49.036;12.112;2022-08-25T02:46:27;97908.06;;;15.33;93.43
21096;BME280;10706;49.036;12.112;2022-08-25T02:48:53;97907.25;;;15.32;93.46
21096;BME280;10706;49.036;12.112;2022-08-25T02:51:23;97897.31;;;15.38;93.91
21096;BME280;10706;49.036;12.112;2022-08-25T02:53:49;97899.78;;;15.45;94.50
21096;BME280;10706;49.036;12.112;2022-08-25T02:56:17;97899.50;;;15.46;94.27
21096;BME280;10706;49.036;12.112;2022-08-25T02:58:44;97897.63;;;15.47;94.15
21096;BME280;10706;49.036;12.112;2022-08-25T03:01:10;97899.22;;;15.43;94.03
21096;BME280;10706;49.036;12.112;2022-08-25T03:03:39;97894.13;;;15.41;94.06
21096;BME280;10706;49.036;12.112;2022-08-25T03:06:09;97893.00;;;15.37;94.11
21096;BME280;10706;49.036;12.112;2022-08-25T03:08:37;97894.13;;;15.46;93.58
21096;BME280;10706;49.036;12.112;2022-08-25T03:11:04;97891.97;;;15.43;93.66
21096;BME280;10706;49.036;12.112;2022-08-25T03:13:30;97885.25;;;15.46;94.12
21096;BME280;10706;49.036;12.112;2022-08-25T03:15:59;97882.56;;;15.46;94.25
21096;BME280;10706;49.036;12.112;2022-08-25T03:18:25;97892.47;;;15.40;93.28
21096;BME280;10706;49.036;12.112;2022-08-25T03:20:50;97882.22;;;15.37;93.54
21096;BME280;10706;49.036;12.112;2022-08-25T03:23:16;97878.44;;;15.33;93.86
21096;BME280;10706;49.036;12.112;2022-08-25T03:25:43;97872.53;;;15.31;93.91
21096;BME280;10706;49.036;12.112;2022-08-25T03:28:28;97881.16;;;15.28;93.90
21096;BME280;10706;49.036;12.112;2022-08-25T03:30:59;97875.75;;;15.33;93.59
21096;BME280;10706;49.036;12.112;2022-08-25T03:33:27;97871.25;;;15.44;94.48
21096;BME280;10706;49.036;12.112;2022-08-25T03:35:53;97875.28;;;15.46;94.49
21096;BME280;10706;49.036;12.112;2022-08-25T03:38:21;97870.75;;;15.57;95.09
21096;BME280;10706;49.036;12.112;2022-08-25T03:40:47;97873.44;;;15.57;93.69
21096;BME280;10706;49.036;12.112;2022-08-25T03:43:13;97872.38;;;15.58;93.59
21096;BME280;10706;49.036;12.112;2022-08-25T03:45:42;97875.88;;;15.59;93.97
21096;BME280;10706;49.036;12.112;2022-08-25T03:48:08;97879.09;;;15.55;93.84
21096;BME280;10706;49.036;12.112;2022-08-25T03:50:35;97883.69;;;15.65;93.94
21096;BME280;10706;49.036;12.112;2022-08-25T03:53:01;97878.88;;;15.72;93.55
21096;BME280;10706;49.036;12.112;2022-08-25T03:55:27;97883.53;;;15.82;92.92
21096;BME280;10706;49.036;12.112;2022-08-25T03:57:55;97886.50;;;15.96;93.11
21096;BME280;10706;49.036;12.112;2022-08-25T04:00:22;97883.81;;;15.96;92.41
21096;BME280;10706;49.036;12.112;2022-08-25T04:02:48;97886.81;;;16.05;92.28
21096;BME280;10706;49.036;12.112;2022-08-25T04:05:14;97894.06;;;16.04;91.99
21096;BME280;10706;49.036;12.112;2022-08-25T04:07:40;97893.28;;;16.19;91.92
21096;BME280;10706;49.036;12.112;2022-08-25T04:10:09;97887.88;;;16.19;91.32
21096;BME280;10706;49.036;12.112;2022-08-25T04:12:35;97886.81;;;16.20;91.15
21096;BME280;10706;49.036;12.112;2022-08-25T04:15:05;97878.72;;;16.20;91.03
21096;BME280;10706;49.036;12.112;2022-08-25T04:17:32;97881.94;;;16.12;91.04
21096;BME280;10706;49.036;12.112;2022-08-25T04:19:58;97878.97;;;16.08;91.25
21096;BME280;10706;49.036;12.112;2022-08-25T04:22:24;97874.94;;;16.21;90.85
21096;BME280;10706;49.036;12.112;2022-08-25T04:24:50;97875.50;;;16.18;90.68
21096;BME280;10706;49.036;12.112;2022-08-25T04:27:16;97873.34;;;16.20;90.50
21096;BME280;10706;49.036;12.112;2022-08-25T04:29:41;97869.28;;;16.18;90.48
21096;BME280;10706;49.036;12.112;2022-08-25T04:32:07;97876.31;;;16.19;90.57
21096;BME280;10706;49.036;12.112;2022-08-25T04:34:33;97869.03;;;16.09;91.04
21096;BME280;10706;49.036;12.112;2022-08-25T04:37:01;97870.09;;;16.08;91.49
21096;BME280;10706;49.036;12.112;2022-08-25T04:39:28;97869.53;;;16.06;90.71
21096;BME280;10706;49.036;12.112;2022-08-25T04:41:54;97863.91;;;16.07;91.43
21096;BME280;10706;49.036;12.112;2022-08-25T04:44:20;97868.72;;;16.00;91.01
21096;BME280;10706;49.036;12.112;2022-08-25T04:46:46;97864.16;;;16.01;91.04
21096;BME280;10706;49.036;12.112;2022-08-25T04:49:12;97877.09;;;16.04;91.04
21096;BME280;10706;49.036;12.112;2022-08-25T04:51:40;97872.22;;;16.01;91.15
21096;BME280;10706;49.036;12.112;2022-08-25T04:54:13;97880.59;;;16.04;91.15
21096;BME280;10706;49.036;12.112;2022-08-25T04:56:42;97883.28;;;16.09;91.35
21096;BME280;10706;49.036;12.112;2022-08-25T04:59:11;97888.38;;;16.01;91.21
21096;BME280;10706;49.036;12.112;2022-08-25T05:01:39;97886.25;;;16.13;90.80
21096;BME280;10706;49.036;12.112;2022-08-25T05:04:09;97877.06;;;15.99;91.47
21096;BME280;10706;49.036;12.112;2022-08-25T05:06:35;97880.59;;;15.99;91.66
21096;BME280;10706;49.036;12.112;2022-08-25T05:09:03;97881.44;;;16.20;90.12
21096;BME280;10706;49.036;12.112;2022-08-25T05:11:29;97886.25;;;16.13;91.15
21096;BME280;10706;49.036;12.112;2022-08-25T05:13:58;97883.84;;;16.32;89.68
21096;BME280;10706;49.036;12.112;2022-08-25T05:16:25;97879.25;;;16.32;89.79
21096;BME280;10706;49.036;12.112;2022-08-25T05:18:52;97875.47;;;16.23;90.04
21096;BME280;10706;49.036;12.112;2022-08-25T05:21:24;97886.28;;;16.44;89.30
21096;BME280;10706;49.036;12.112;2022-08-25T05:23:57;97877.91;;;16.61;88.84
21096;BME280;10706;49.036;12.112;2022-08-25T05:26:26;97873.88;;;16.74;87.63
21096;BME280;10706;49.036;12.112;2022-08-25T05:28:54;97867.09;;;16.81;87.23
21096;BME280;10706;49.036;12.112;2022-08-25T05:31:23;97873.31;;;16.87;87.74
21096;BME280;10706;49.036;12.112;2022-08-25T05:33:50;97887.38;;;16.84;87.75
21096;BME280;10706;49.036;12.112;2022-08-25T05:36:17;97878.19;;;16.85;88.34
21096;BME280;10706;49.036;12.112;2022-08-25T05:38:44;97876.25;;;17.06;86.75
21096;BME280;10706;49.036;12.112;2022-08-25T05:41:15;97880.31;;;17.14;86.92
21096;BME280;10706;49.036;12.112;2022-08-25T05:43:42;97885.72;;;17.08;86.64
21096;BME280;10706;49.036;12.112;2022-08-25T05:46:10;97879.19;;;17.20;87.01
21096;BME280;10706;49.036;12.112;2022-08-25T05:48:37;97882.97;;;17.19;86.36
21096;BME280;10706;49.036;12.112;2022-08-25T05:51:07;97878.63;;;17.23;86.60
21096;BME280;10706;49.036;12.112;2022-08-25T05:53:35;97874.69;;;17.65;85.05
21096;BME280;10706;49.036;12.112;2022-08-25T05:56:01;97874.19;;;17.53;85.92
21096;BME280;10706;49.036;12.112;2022-08-25T05:58:28;97867.94;;;17.62;85.45
21096;BME280;10706;49.036;12.112;2022-08-25T06:00:56;97864.16;;;17.68;85.38
21096;BME280;10706;49.036;12.112;2022-08-25T06:03:22;97866.75;;;17.84;85.09
21096;BME280;10706;49.036;12.112;2022-08-25T06:05:48;97862.69;;;17.92;84.68
21096;BME280;10706;49.036;12.112;2022-08-25T06:08:14;97862.25;;;18.19;84.24
21096;BME280;10706;49.036;12.112;2022-08-25T06:10:41;97856.91;;;18.43;83.59
21096;BME280;10706;49.036;12.112;2022-08-25T06:13:07;97858.03;;;18.37;84.43
21096;BME280;10706;49.036;12.112;2022-08-25T06:15:33;97855.72;;;18.54;83.15
21096;BME280;10706;49.036;12.112;2022-08-25T06:17:59;97855.25;;;18.76;82.97
21096;BME280;10706;49.036;12.112;2022-08-25T06:20:29;97850.47;;;18.97;81.88
21096;BME280;10706;49.036;12.112;2022-08-25T06:22:56;97851.53;;;19.01;81.17
21096;BME280;10706;49.036;12.112;2022-08-25T06:25:24;97846.91;;;19.02;81.57
21096;BME280;10706;49.036;12.112;2022-08-25T06:27:52;97841.63;;;19.16;81.38
21096;BME280;10706;49.036;12.112;2022-08-25T06:30:20;97846.28;;;19.34;80.59
21096;BME280;10706;49.036;12.112;2022-08-25T06:32:47;97852.31;;;19.50;79.83
21096;BME280;10706;49.036;12.112;2022-08-25T06:35:18;97844.94;;;19.56;80.24
21096;BME280;10706;49.036;12.112;2022-08-25T06:37:45;97848.22;;;19.53;80.68
21096;BME280;10706;49.036;12.112;2022-08-25T06:40:13;97854.47;;;19.72;79.53
21096;BME280;10706;49.036;12.112;2022-08-25T06:42:39;97847.88;;;20.16;77.96
21096;BME280;10706;49.036;12.112;2022-08-25T06:45:06;97837.19;;;20.06;78.74
21096;BME280;10706;49.036;12.112;2022-08-25T06:47:32;97840.22;;;20.05;79.44
21096;BME280;10706;49.036;12.112;2022-08-25T06:49:58;97836.38;;;20.25;77.82
21096;BME280;10706;49.036;12.112;2022-08-25T06:52:24;97846.59;;;20.47;76.72
21096;BME280;10706;49.036;12.112;2022-08-25T06:54:49;97840.03;;;20.67;76.57
21096;BME280;10706;49.036;12.112;2022-08-25T06:57:15;97843.25;;;20.69;75.94
21096;BME280;10706;49.036;12.112;2022-08-25T06:59:41;97846.28;;;20.81;75.60
21096;BME280;10706;49.036;12.112;2022-08-25T07:02:07;97846.19;;;21.00;75.11
21096;BME280;10706;49.036;12.112;2022-08-25T07:04:34;97836.75;;;20.97;74.88
21096;BME280;10706;49.036;12.112;2022-08-25T07:07:00;97844.91;;;21.25;73.65
21096;BME280;10706;49.036;12.112;2022-08-25T07:09:26;97835.78;;;21.21;74.83
21096;BME280;10706;49.036;12.112;2022-08-25T07:11:52;97837.25;;;21.41;73.92
21096;BME280;10706;49.036;12.112;2022-08-25T07:14:18;97841.78;;;21.18;75.81
21096;BME280;10706;49.036;12.112;2022-08-25T07:16:45;97838.88;;;21.42;74.00
21096;BME280;10706;49.036;12.112;2022-08-25T07:19:12;97835.06;;;21.57;74.53
21096;BME280;10706;49.036;12.112;2022-08-25T07:21:40;97839.88;;;21.60;74.54
21096;BME280;10706;49.036;12.112;2022-08-25T07:24:10;97836.97;;;21.93;72.10
21096;BME280;10706;49.036;12.112;2022-08-25T07:26:39;97836.63;;;22.08;72.59
21096;BME280;10706;49.036;12.112;2022-08-25T07:29:22;97838.72;;;22.11;72.98
21096;BME280;10706;49.036;12.112;2022-08-25T07:31:49;97843.22;;;22.30;72.61
21096;BME280;10706;49.036;12.112;2022-08-25T07:34:15;97834.00;;;22.40;70.92
21096;BME280;10706;49.036;12.112;2022-08-25T07:36:59;97832.78;;;22.77;68.92
21096;BME280;10706;49.036;12.112;2022-08-25T07:39:26;97831.16;;;22.76;68.93
21096;BME280;10706;49.036;12.112;2022-08-25T07:41:52;97832.78;;;22.77;69.99
21096;BME280;10706;49.036;12.112;2022-08-25T07:44:21;97833.63;;;22.86;69.31
21096;BME280;10706;49.036;12.112;2022-08-25T07:46:47;97825.94;;;22.88;69.12
21096;BME280;10706;49.036;12.112;2022-08-25T07:49:21;97829.59;;;23.15;69.26
21096;BME280;10706;49.036;12.112;2022-08-25T07:51:47;97824.25;;;23.01;67.76
21096;BME280;10706;49.036;12.112;2022-08-25T07:54:12;97816.38;;;23.00;65.58
21096;BME280;10706;49.036;12.112;2022-08-25T07:56:39;97821.50;;;23.01;65.35
21096;BME280;10706;49.036;12.112;2022-08-25T07:59:08;97820.81;;;23.27;64.86
21096;BME280;10706;49.036;12.112;2022-08-25T08:01:34;97817.91;;;23.23;66.18
21096;BME280;10706;49.036;12.112;2022-08-25T08:04:00;97813.47;;;23.27;63.94
21096;BME280;10706;49.036;12.112;2022-08-25T08:06:26;97821.00;;;23.48;65.65
21096;BME280;10706;49.036;12.112;2022-08-25T08:08:53;97822.31;;;23.51;63.63
21096;BME280;10706;49.036;12.112;2022-08-25T08:11:28;97823.78;;;23.65;62.69
21096;BME280;10706;49.036;12.112;2022-08-25T08:13:56;97821.53;;;23.59;62.78
21096;BME280;10706;49.036;12.112;2022-08-25T08:16:26;97816.72;;;23.64;63.93
21096;BME280;10706;49.036;12.112;2022-08-25T08:18:52;97822.53;;;23.89;63.59
21096;BME280;10706;49.036;12.112;2022-08-25T08:21:38;97821.75;;;23.97;62.14
21096;BME280;10706;49.036;12.112;2022-08-25T08:24:04;97825.44;;;24.19;61.58
21096;BME280;10706;49.036;12.112;2022-08-25T08:26:30;97827.31;;;24.44;61.57
21096;BME280;10706;49.036;12.112;2022-08-25T08:28:57;97823.72;;;24.79;59.71
21096;BME280;10706;49.036;12.112;2022-08-25T08:31:24;97824.56;;;25.09;60.85
21096;BME280;10706;49.036;12.112;2022-08-25T08:33:52;97826.72;;;25.33;57.79
21096;BME280;10706;49.036;12.112;2022-08-25T08:36:18;97822.91;;;25.26;59.05
21096;BME280;10706;49.036;12.112;2022-08-25T08:38:45;97818.59;;;25.16;58.11
21096;BME280;10706;49.036;12.112;2022-08-25T08:47:37;97818.38;;;25.30;57.41
21096;BME280;10706;49.036;12.112;2022-08-25T08:50:38;97816.09;;;25.83;55.89
21096;BME280;10706;49.036;12.112;2022-08-25T08:55:57;97809.63;;;25.96;55.88
21096;BME280;10706;49.036;12.112;2022-08-25T08:58:47;97810.41;;;25.96;56.81
21096;BME280;10706;49.036;12.112;2022-08-25T09:02:01;97818.50;;;25.93;55.50
21096;BME280;10706;49.036;12.112;2022-08-25T09:04:46;97817.16;;;25.48;57.44
21096;BME280;10706;49.036;12.112;2022-08-25T09:07:19;97817.53;;;25.68;56.85
21096;BME280;10706;49.036;12.112;2022-08-25T09:09:48;97815.66;;;25.80;56.88
21096;BME280;10706;49.036;12.112;2022-08-25T09:12:40;97809.06;;;25.60;56.69
21096;BME280;10706;49.036;12.112;2022-08-25T09:18:29;97803.56;;;25.01;59.25
21096;BME280;10706;49.036;12.112;2022-08-25T09:30:05;97797.44;;;24.57;61.70
21096;BME280;10706;49.036;12.112;2022-08-25T09:32:49;97793.53;;;24.75;61.42
21096;BME280;10706;49.036;12.112;2022-08-25T09:35:26;97789.50;;;24.81;60.16
21096;BME280;10706;49.036;12.112;2022-08-25T09:38:04;97787.09;;;24.80;60.48
21096;BME280;10706;49.036;12.112;2022-08-25T09:40:36;97794.25;;;25.02;59.66
21096;BME280;10706;49.036;12.112;2022-08-25T09:43:22;97790.25;;;24.91;60.27
21096;BME280;10706;49.036;12.112;2022-08-25T09:51:27;97788.22;;;24.79;60.45
21096;BME280;10706;49.036;12.112;2022-08-25T09:54:20;97785.16;;;24.80;61.60
21096;BME280;10706;49.036;12.112;2022-08-25T09:56:53;97784.44;;;25.01;59.35
21096;BME280;10706;49.036;12.112;2022-08-25T09:59:22;97781.38;;;25.02;59.88
21096;BME280;10706;49.036;12.112;2022-08-25T10:01:51;97782.50;;;25.01;58.04
21096;BME280;10706;49.036;12.112;2022-08-25T10:04:25;97779.25;;;25.08;58.22
21096;BME280;10706;49.036;12.112;2022-08-25T10:06:51;97777.38;;;25.30;57.35
21096;BME280;10706;49.036;12.112;2022-08-25T10:09:40;97778.41;;;25.16;57.65
21096;BME280;10706;49.036;12.112;2022-08-25T10:12:39;97766.81;;;25.49;55.83
21096;BME280;10706;49.036;12.112;2022-08-25T10:17:46;97764.03;;;25.79;55.30
21096;BME280;10706;49.036;12.112;2022-08-25T10:20:15;97756.47;;;25.76;55.48
21096;BME280;10706;49.036;12.112;2022-08-25T10:22:43;97749.41;;;26.29;54.09
21096;BME280;10706;49.036;12.112;2022-08-25T10:25:12;97747.00;;;26.73;52.45
21096;BME280;10706;49.036;12.112;2022-08-25T10:37:17;97737.03;;;26.11;53.19
21096;BME280;10706;49.036;12.112;2022-08-25T10:40:24;97724.41;;;26.64;53.21
21096;BME280;10706;49.036;12.112;2022-08-25T10:43:23;97723.59;;;26.76;53.13
21096;BME280;10706;49.036;12.112;2022-08-25T10:46:15;97719.34;;;27.15;52.20
21096;BME280;10706;49.036;12.112;2022-08-25T10:51:49;97707.13;;;27.66;50.03
21096;BME280;10706;49.036;12.112;2022-08-25T10:54:47;97709.06;;;27.37;50.83
21096;BME280;10706;49.036;12.112;2022-08-25T10:57:45;97711.13;;;27.28;50.91
21096;BME280;10706;49.036;12.112;2022-08-25T11:00:20;97716.97;;;26.89;52.68
21096;BME280;10706;49.036;12.112;2022-08-25T11:06:04;97715.53;;;26.46;54.55
21096;BME280;10706;49.036;12.112;2022-08-25T11:08:38;97711.94;;;26.91;54.16
21096;BME280;10706;49.036;12.112;2022-08-25T11:11:35;97708.25;;;27.12;53.86
21096;BME280;10706;49.036;12.112;2022-08-25T11:14:20;97715.13;;;27.30;52.39
21096;BME280;10706;49.036;12.112;2022-08-25T11:17:03;97712.53;;;27.90;51.21
21096;BME280;10706;49.036;12.112;2022-08-25T11:19:38;97707.91;;;27.38;49.88
21096;BME280;10706;49.036;12.112;2022-08-25T11:22:22;97704.91;;;27.84;49.34
21096;BME280;10706;49.036;12.112;2022-08-25T11:25:26;97703.34;;;27.70;50.18
21096;BME280;10706;49.036;12.112;2022-08-25T11:28:28;97702.75;;;27.77;49.44
21096;BME280;10706;49.036;12.112;2022-08-25T11:30:58;97705.38;;;27.45;48.53
21096;BME280;10706;49.036;12.112;2022-08-25T11:33:26;97701.06;;;27.32;50.83
21096;BME280;10706;49.036;12.112;2022-08-25T11:39:19;97695.50;;;27.16;51.16
21096;BME280;10706;49.036;12.112;2022-08-25T11:45:14;97702.09;;;27.68;48.81
21096;BME280;10706;49.036;12.112;2022-08-25T11:48:55;97700.44;;;27.79;47.71
21096;BME280;10706;49.036;12.112;2022-08-25T11:51:31;97695.31;;;27.78;47.81
21096;BME280;10706;49.036;12.112;2022-08-25T11:56:57;97688.88;;;27.86;49.25
21096;BME280;10706;49.036;12.112;2022-08-25T12:02:40;97687.56;;;28.72;46.67
21096;BME280;10706;49.036;12.112;2022-08-25T12:11:07;97670.94;;;29.35;43.33
21096;BME280;10706;49.036;12.112;2022-08-25T12:13:50;97670.06;;;29.31;44.28
21096;BME280;10706;49.036;12.112;2022-08-25T12:27:31;97663.28;;;29.83;42.98
21096;BME280;10706;49.036;12.112;2022-08-25T12:30:25;97664.06;;;29.84;43.46
21096;BME280;10706;49.036;12.112;2022-08-25T12:36:03;97650.31;;;29.64;42.26
21096;BME280;10706;49.036;12.112;2022-08-25T12:38:52;97658.81;;;29.75;42.02
21096;BME280;10706;49.036;12.112;2022-08-25T12:41:27;97657.69;;;29.41;44.22
21096;BME280;10706;49.036;12.112;2022-08-25T12:44:43;97652.97;;;28.86;44.81
21096;BME280;10706;49.036;12.112;2022-08-25T12:47:29;97651.22;;;28.62;44.51
21096;BME280;10706;49.036;12.112;2022-08-25T12:55:50;97644.19;;;28.81;46.43
21096;BME280;10706;49.036;12.112;2022-08-25T12:58:16;97643.84;;;28.82;44.68
21096;BME280;10706;49.036;12.112;2022-08-25T13:01:17;97642.88;;;29.10;45.04
21096;BME280;10706;49.036;12.112;2022-08-25T13:07:40;97631.56;;;28.96;45.43
21096;BME280;10706;49.036;12.112;2022-08-25T13:13:19;97639.53;;;28.65;45.96
21096;BME280;10706;49.036;12.112;2022-08-25T13:16:01;97626.06;;;28.60;45.46
21096;BME280;10706;49.036;12.112;2022-08-25T13:18:31;97630.44;;;27.85;46.43
21096;BME280;10706;49.036;12.112;2022-08-25T13:23:42;97630.66;;;27.92;47.14
21096;BME280;10706;49.036;12.112;2022-08-25T13:26:16;97620.13;;;28.42;47.84
21096;BME280;10706;49.036;12.112;2022-08-25T13:29:12;97617.13;;;28.00;46.59
21096;BME280;10706;49.036;12.112;2022-08-25T13:31:55;97620.28;;;28.65;46.63
21096;BME280;10706;49.036;12.112;2022-08-25T13:34:29;97610.41;;;29.55;45.81
21096;BME280;10706;49.036;12.112;2022-08-25T13:37:04;97594.97;;;29.11;43.89
21096;BME280;10706;49.036;12.112;2022-08-25T13:39:49;97604.31;;;30.08;43.15
21096;BME280;10706;49.036;12.112;2022-08-25T13:42:16;97595.50;;;29.75;42.35
21096;BME280;10706;49.036;12.112;2022-08-25T13:44:43;97594.53;;;29.87;44.53
21096;BME280;10706;49.036;12.112;2022-08-25T13:47:15;97598.53;;;29.51;43.45
21096;BME280;10706;49.036;12.112;2022-08-25T13:49:45;97597.97;;;30.03;45.08
21096;BME280;10706;49.036;12.112;2022-08-25T13:52:25;97597.69;;;30.12;42.07
21096;BME280;10706;49.036;12.112;2022-08-25T13:54:59;97586.31;;;30.90;41.33
21096;BME280;10706;49.036;12.112;2022-08-25T13:57:28;97582.00;;;30.93;42.00
21096;BME280;10706;49.036;12.112;2022-08-25T14:00:00;97585.19;;;30.68;40.03
21096;BME280;10706;49.036;12.112;2022-08-25T14:02:49;97575.69;;;30.35;42.05
21096;BME280;10706;49.036;12.112;2022-08-25T14:05:32;97580.06;;;30.40;40.53
21096;BME280;10706;49.036;12.112;2022-08-25T14:07:59;97571.66;;;29.83;42.44
21096;BME280;10706;49.036;12.112;2022-08-25T14:10:42;97581.00;;;30.01;42.26
21096;BME280;10706;49.036;12.112;2022-08-25T14:13:12;97577.16;;;30.56;42.09
21096;BME280;10706;49.036;12.112;2022-08-25T14:15:39;97574.44;;;31.16;40.84
21096;BME280;10706;49.036;12.112;2022-08-25T14:18:14;97579.28;;;31.27;41.74
21096;BME280;10706;49.036;12.112;2022-08-25T14:20:46;97581.34;;;30.73;42.89
21096;BME280;10706;49.036;12.112;2022-08-25T14:23:20;97575.63;;;30.58;45.09
21096;BME280;10706;49.036;12.112;2022-08-25T14:25:49;97587.53;;;30.16;47.91
21096;BME280;10706;49.036;12.112;2022-08-25T14:28:21;97590.91;;;29.83;48.61
21096;BME280;10706;49.036;12.112;2022-08-25T14:30:53;97590.50;;;29.22;54.25
21096;BME280;10706;49.036;12.112;2022-08-25T14:33:29;97584.47;;;28.97;53.25
21096;BME280;10706;49.036;12.112;2022-08-25T14:35:58;97581.75;;;28.62;52.96
21096;BME280;10706;49.036;12.112;2022-08-25T14:38:24;97577.13;;;28.50;54.61
21096;BME280;10706;49.036;12.112;2022-08-25T14:40:51;97573.09;;;28.28;54.07
21096;BME280;10706;49.036;12.112;2022-08-25T14:43:18;97568.34;;;28.25;52.05
21096;BME280;10706;49.036;12.112;2022-08-25T14:45:46;97575.03;;;28.11;52.95
21096;BME280;10706;49.036;12.112;2022-08-25T14:48:18;97579.09;;;28.34;53.34
21096;BME280;10706;49.036;12.112;2022-08-25T14:50:45;97571.50;;;28.11;53.22
21096;BME280;10706;49.036;12.112;2022-08-25T14:53:11;97567.44;;;28.05;53.14